sensor_id;sensor_type;location;lat;lon;timestamp;temperature;humidity
56322;DHT22;42227;6.376;-10.782;2023-08-06T00:00:52;25.40;99.90
56322;DHT22;42227;6.376;-10.782;2023-08-06T00:03:21;25.80;84.20
56322;DHT22;42227;6.376;-10.782;2023-08-06T00:05:49;26.00;54.60
56322;DHT22;42227;6.376;-10.782;2023-08-06T00:08:19;26.20;18.70
56322;DHT22;42227;6.376;-10.782;2023-08-06T00:10:48;26.10;17.50
56322;DHT22;42227;6.376;-10.782;2023-08-06T00:13:17;25.90;4.30
56322;DHT22;42227;6.376;-10.782;2023-08-06T00:15:46;26.00;8.40
56322;DHT22;42227;6.376;-10.782;2023-08-06T00:21:17;25.50;36.70
56322;DHT22;42227;6.376;-10.782;2023-08-06T00:23:46;25.30;77.30
56322;DHT22;42227;6.376;-10.782;2023-08-06T00:26:15;25.20;94.30
56322;DHT22;42227;6.376;-10.782;2023-08-06T00:28:44;25.10;97.50
56322;DHT22;42227;6.376;-10.782;2023-08-06T00:31:12;25.10;99.90
56322;DHT22;42227;6.376;-10.782;2023-08-06T00:33:41;25.10;99.90
56322;DHT22;42227;6.376;-10.782;2023-08-06T00:36:09;25.10;99.90
56322;DHT22;42227;6.376;-10.782;2023-08-06T00:38:38;25.10;99.90
56322;DHT22;42227;6.376;-10.782;2023-08-06T00:41:06;25.10;99.90
56322;DHT22;42227;6.376;-10.782;2023-08-06T00:43:34;25.20;99.90
56322;DHT22;42227;6.376;-10.782;2023-08-06T00:46:03;25.10;99.90
56322;DHT22;42227;6.376;-10.782;2023-08-06T00:48:31;25.20;99.90
56322;DHT22;42227;6.376;-10.782;2023-08-06T00:51:01;25.20;99.90
56322;DHT22;42227;6.376;-10.782;2023-08-06T00:53:29;25.20;99.90
56322;DHT22;42227;6.376;-10.782;2023-08-06T00:55:58;25.50;99.90
56322;DHT22;42227;6.376;-10.782;2023-08-06T00:58:27;25.70;89.20
56322;DHT22;42227;6.376;-10.782;2023-08-06T01:00:56;25.90;60.10
56322;DHT22;42227;6.376;-10.782;2023-08-06T01:03:24;25.90;48.10
56322;DHT22;42227;6.376;-10.782;2023-08-06T01:05:53;26.00;36.60
56322;DHT22;42227;6.376;-10.782;2023-08-06T01:11:05;26.00;11.50
56322;DHT22;42227;6.376;-10.782;2023-08-06T01:16:12;25.50;36.90
56322;DHT22;42227;6.376;-10.782;2023-08-06T01:18:43;25.50;57.40
56322;DHT22;42227;6.376;-10.782;2023-08-06T01:21:14;25.40;75.70
56322;DHT22;42227;6.376;-10.782;2023-08-06T01:23:43;25.30;90.20
56322;DHT22;42227;6.376;-10.782;2023-08-06T01:26:34;25.30;92.10
56322;DHT22;42227;6.376;-10.782;2023-08-06T01:31:39;25.30;99.90
56322;DHT22;42227;6.376;-10.782;2023-08-06T01:34:36;25.20;99.90
56322;DHT22;42227;6.376;-10.782;2023-08-06T01:37:05;25.10;99.90
56322;DHT22;42227;6.376;-10.782;2023-08-06T01:39:35;25.10;99.90
56322;DHT22;42227;6.376;-10.782;2023-08-06T01:42:04;25.10;99.90
56322;DHT22;42227;6.376;-10.782;2023-08-06T01:44:32;25.20;99.90
56322;DHT22;42227;6.376;-10.782;2023-08-06T01:47:01;25.10;99.90
56322;DHT22;42227;6.376;-10.782;2023-08-06T01:49:29;25.10;99.90
56322;DHT22;42227;6.376;-10.782;2023-08-06T01:51:58;25.30;99.90
56322;DHT22;42227;6.376;-10.782;2023-08-06T01:54:26;25.60;99.90
56322;DHT22;42227;6.376;-10.782;2023-08-06T01:56:54;25.80;96.40
56322;DHT22;42227;6.376;-10.782;2023-08-06T01:59:23;25.90;63.30
56322;DHT22;42227;6.376;-10.782;2023-08-06T02:01:51;25.80;56.60
56322;DHT22;42227;6.376;-10.782;2023-08-06T02:04:20;25.60;60.80
56322;DHT22;42227;6.376;-10.782;2023-08-06T02:06:50;25.40;70.30
56322;DHT22;42227;6.376;-10.782;2023-08-06T02:09:19;25.30;90.00
56322;DHT22;42227;6.376;-10.782;2023-08-06T02:11:47;25.30;94.70
56322;DHT22;42227;6.376;-10.782;2023-08-06T02:14:16;25.20;95.60
56322;DHT22;42227;6.376;-10.782;2023-08-06T02:16:45;25.20;99.90
56322;DHT22;42227;6.376;-10.782;2023-08-06T02:19:13;25.20;99.90
56322;DHT22;42227;6.376;-10.782;2023-08-06T02:21:42;25.20;96.80
56322;DHT22;42227;6.376;-10.782;2023-08-06T02:24:11;25.20;96.90
56322;DHT22;42227;6.376;-10.782;2023-08-06T02:26:39;25.20;96.80
56322;DHT22;42227;6.376;-10.782;2023-08-06T02:29:07;25.20;94.10
56322;DHT22;42227;6.376;-10.782;2023-08-06T02:31:36;25.20;96.30
56322;DHT22;42227;6.376;-10.782;2023-08-06T02:34:05;25.20;99.90
56322;DHT22;42227;6.376;-10.782;2023-08-06T02:36:34;25.20;99.90
56322;DHT22;42227;6.376;-10.782;2023-08-06T02:39:03;25.60;99.90
56322;DHT22;42227;6.376;-10.782;2023-08-06T02:41:31;25.70;74.50
56322;DHT22;42227;6.376;-10.782;2023-08-06T02:44:00;25.80;45.40
56322;DHT22;42227;6.376;-10.782;2023-08-06T02:46:28;26.00;29.20
56322;DHT22;42227;6.376;-10.782;2023-08-06T02:48:57;26.20;5.10
56322;DHT22;42227;6.376;-10.782;2023-08-06T02:51:26;26.20;1.00
56322;DHT22;42227;6.376;-10.782;2023-08-06T02:53:54;25.80;4.60
56322;DHT22;42227;6.376;-10.782;2023-08-06T02:56:23;25.50;29.40
56322;DHT22;42227;6.376;-10.782;2023-08-06T02:59:03;25.50;41.20
56322;DHT22;42227;6.376;-10.782;2023-08-06T03:01:50;25.40;46.50
56322;DHT22;42227;6.376;-10.782;2023-08-06T03:04:26;25.30;50.70
56322;DHT22;42227;6.376;-10.782;2023-08-06T03:06:54;25.30;49.60
56322;DHT22;42227;6.376;-10.782;2023-08-06T03:09:27;25.30;50.30
56322;DHT22;42227;6.376;-10.782;2023-08-06T03:11:57;25.30;42.40
56322;DHT22;42227;6.376;-10.782;2023-08-06T03:14:25;25.30;49.40
56322;DHT22;42227;6.376;-10.782;2023-08-06T03:16:53;25.30;59.20
56322;DHT22;42227;6.376;-10.782;2023-08-06T03:19:22;25.30;59.10
56322;DHT22;42227;6.376;-10.782;2023-08-06T03:21:50;25.30;60.80
56322;DHT22;42227;6.376;-10.782;2023-08-06T03:24:19;25.30;60.80
56322;DHT22;42227;6.376;-10.782;2023-08-06T03:26:47;25.30;63.60
56322;DHT22;42227;6.376;-10.782;2023-08-06T03:29:16;25.70;55.40
56322;DHT22;42227;6.376;-10.782;2023-08-06T03:31:45;25.90;16.80
56322;DHT22;42227;6.376;-10.782;2023-08-06T03:34:15;26.00;1.00
56322;DHT22;42227;6.376;-10.782;2023-08-06T03:36:47;26.20;1.00
56322;DHT22;42227;6.376;-10.782;2023-08-06T03:39:19;26.20;1.00
56322;DHT22;42227;6.376;-10.782;2023-08-06T03:41:48;26.20;1.00
56322;DHT22;42227;6.376;-10.782;2023-08-06T03:44:16;25.90;1.00
56322;DHT22;42227;6.376;-10.782;2023-08-06T03:46:45;25.70;1.00
56322;DHT22;42227;6.376;-10.782;2023-08-06T03:51:33;25.50;27.60
56322;DHT22;42227;6.376;-10.782;2023-08-06T03:54:02;25.30;73.10
56322;DHT22;42227;6.376;-10.782;2023-08-06T03:56:31;25.20;99.90
56322;DHT22;42227;6.376;-10.782;2023-08-06T03:58:59;25.10;99.90
56322;DHT22;42227;6.376;-10.782;2023-08-06T04:01:28;25.10;99.90
56322;DHT22;42227;6.376;-10.782;2023-08-06T04:03:57;25.00;99.90
56322;DHT22;42227;6.376;-10.782;2023-08-06T04:06:25;25.00;99.90
56322;DHT22;42227;6.376;-10.782;2023-08-06T04:08:54;25.00;99.90
56322;DHT22;42227;6.376;-10.782;2023-08-06T04:11:22;24.90;99.90
56322;DHT22;42227;6.376;-10.782;2023-08-06T04:13:51;24.90;99.90
56322;DHT22;42227;6.376;-10.782;2023-08-06T04:16:19;24.80;99.90
56322;DHT22;42227;6.376;-10.782;2023-08-06T04:18:48;25.00;99.90
56322;DHT22;42227;6.376;-10.782;2023-08-06T04:21:16;25.30;99.90
56322;DHT22;42227;6.376;-10.782;2023-08-06T04:23:44;25.50;99.90
56322;DHT22;42227;6.376;-10.782;2023-08-06T04:26:14;25.70;99.90
56322;DHT22;42227;6.376;-10.782;2023-08-06T04:28:44;25.80;99.90
56322;DHT22;42227;6.376;-10.782;2023-08-06T04:31:12;25.60;99.90
56322;DHT22;42227;6.376;-10.782;2023-08-06T04:33:43;25.40;99.90
56322;DHT22;42227;6.376;-10.782;2023-08-06T04:36:14;25.30;99.90
56322;DHT22;42227;6.376;-10.782;2023-08-06T04:38:44;25.20;99.90
56322;DHT22;42227;6.376;-10.782;2023-08-06T04:41:14;25.10;99.90
56322;DHT22;42227;6.376;-10.782;2023-08-06T04:43:43;25.10;99.90
56322;DHT22;42227;6.376;-10.782;2023-08-06T04:46:11;25.00;99.90
56322;DHT22;42227;6.376;-10.782;2023-08-06T04:48:40;24.90;99.90
56322;DHT22;42227;6.376;-10.782;2023-08-06T04:51:08;24.80;99.90
56322;DHT22;42227;6.376;-10.782;2023-08-06T04:53:37;24.80;99.90
56322;DHT22;42227;6.376;-10.782;2023-08-06T04:56:05;24.80;99.90
56322;DHT22;42227;6.376;-10.782;2023-08-06T04:58:33;24.70;99.90
56322;DHT22;42227;6.376;-10.782;2023-08-06T05:01:04;24.60;99.90
56322;DHT22;42227;6.376;-10.782;2023-08-06T05:03:32;24.60;99.90
56322;DHT22;42227;6.376;-10.782;2023-08-06T05:06:01;24.60;99.90
56322;DHT22;42227;6.376;-10.782;2023-08-06T05:08:29;24.90;99.90
56322;DHT22;42227;6.376;-10.782;2023-08-06T05:10:58;25.00;99.90
56322;DHT22;42227;6.376;-10.782;2023-08-06T05:13:26;25.40;99.90
56322;DHT22;42227;6.376;-10.782;2023-08-06T05:15:54;25.50;69.30
56322;DHT22;42227;6.376;-10.782;2023-08-06T05:18:23;25.40;41.40
56322;DHT22;42227;6.376;-10.782;2023-08-06T05:20:52;25.10;84.90
56322;DHT22;42227;6.376;-10.782;2023-08-06T05:23:20;25.00;99.90
56322;DHT22;42227;6.376;-10.782;2023-08-06T05:25:48;24.90;99.90
56322;DHT22;42227;6.376;-10.782;2023-08-06T05:28:17;24.90;99.90
56322;DHT22;42227;6.376;-10.782;2023-08-06T05:30:45;24.90;99.90
56322;DHT22;42227;6.376;-10.782;2023-08-06T05:33:14;24.90;99.90
56322;DHT22;42227;6.376;-10.782;2023-08-06T05:35:42;24.90;99.90
56322;DHT22;42227;6.376;-10.782;2023-08-06T05:38:10;24.90;99.90
56322;DHT22;42227;6.376;-10.782;2023-08-06T05:40:39;24.90;99.90
56322;DHT22;42227;6.376;-10.782;2023-08-06T05:43:07;24.90;99.90
56322;DHT22;42227;6.376;-10.782;2023-08-06T05:45:36;24.80;99.90
56322;DHT22;42227;6.376;-10.782;2023-08-06T05:48:04;24.80;99.90
56322;DHT22;42227;6.376;-10.782;2023-08-06T05:50:33;24.80;99.90
56322;DHT22;42227;6.376;-10.782;2023-08-06T05:53:01;24.90;99.90
56322;DHT22;42227;6.376;-10.782;2023-08-06T05:55:30;25.00;99.90
56322;DHT22;42227;6.376;-10.782;2023-08-06T05:57:58;25.50;99.90
56322;DHT22;42227;6.376;-10.782;2023-08-06T06:00:27;25.70;99.90
56322;DHT22;42227;6.376;-10.782;2023-08-06T06:02:55;25.80;99.90
56322;DHT22;42227;6.376;-10.782;2023-08-06T06:05:24;25.90;97.40
56322;DHT22;42227;6.376;-10.782;2023-08-06T06:07:52;25.60;90.30
56322;DHT22;42227;6.376;-10.782;2023-08-06T06:10:21;25.30;99.90
56322;DHT22;42227;6.376;-10.782;2023-08-06T06:12:50;25.20;99.90
56322;DHT22;42227;6.376;-10.782;2023-08-06T06:15:18;25.10;99.90
56322;DHT22;42227;6.376;-10.782;2023-08-06T06:17:47;25.00;99.90
56322;DHT22;42227;6.376;-10.782;2023-08-06T06:20:15;25.00;99.90
56322;DHT22;42227;6.376;-10.782;2023-08-06T06:22:44;25.00;99.90
56322;DHT22;42227;6.376;-10.782;2023-08-06T06:25:12;24.90;99.90
56322;DHT22;42227;6.376;-10.782;2023-08-06T06:27:41;25.00;99.90
56322;DHT22;42227;6.376;-10.782;2023-08-06T06:30:10;24.90;99.90
56322;DHT22;42227;6.376;-10.782;2023-08-06T06:32:38;24.90;99.90
56322;DHT22;42227;6.376;-10.782;2023-08-06T06:35:07;25.00;99.90
56322;DHT22;42227;6.376;-10.782;2023-08-06T06:37:36;25.00;99.90
56322;DHT22;42227;6.376;-10.782;2023-08-06T06:40:04;25.00;99.90
56322;DHT22;42227;6.376;-10.782;2023-08-06T06:42:33;25.00;99.90
56322;DHT22;42227;6.376;-10.782;2023-08-06T06:45:05;25.40;96.40
56322;DHT22;42227;6.376;-10.782;2023-08-06T06:47:34;25.60;45.40
56322;DHT22;42227;6.376;-10.782;2023-08-06T06:50:03;25.70;34.70
56322;DHT22;42227;6.376;-10.782;2023-08-06T06:52:31;25.60;28.80
56322;DHT22;42227;6.376;-10.782;2023-08-06T06:55:00;25.70;22.20
56322;DHT22;42227;6.376;-10.782;2023-08-06T06:57:28;25.40;34.30
56322;DHT22;42227;6.376;-10.782;2023-08-06T06:59:57;25.30;58.90
56322;DHT22;42227;6.376;-10.782;2023-08-06T07:02:25;25.20;74.90
56322;DHT22;42227;6.376;-10.782;2023-08-06T07:04:55;25.20;85.00
56322;DHT22;42227;6.376;-10.782;2023-08-06T07:07:24;25.20;89.20
56322;DHT22;42227;6.376;-10.782;2023-08-06T07:09:53;25.20;90.10
56322;DHT22;42227;6.376;-10.782;2023-08-06T07:12:26;25.20;95.40
56322;DHT22;42227;6.376;-10.782;2023-08-06T07:14:57;25.20;99.90
56322;DHT22;42227;6.376;-10.782;2023-08-06T07:17:26;25.20;98.30
56322;DHT22;42227;6.376;-10.782;2023-08-06T07:19:54;25.20;99.90
56322;DHT22;42227;6.376;-10.782;2023-08-06T07:22:23;25.20;99.90
56322;DHT22;42227;6.376;-10.782;2023-08-06T07:24:52;25.20;99.90
56322;DHT22;42227;6.376;-10.782;2023-08-06T07:27:20;25.20;99.90
56322;DHT22;42227;6.376;-10.782;2023-08-06T07:29:49;25.20;99.90
56322;DHT22;42227;6.376;-10.782;2023-08-06T07:32:17;25.40;99.90
56322;DHT22;42227;6.376;-10.782;2023-08-06T07:34:45;25.70;91.80
56322;DHT22;42227;6.376;-10.782;2023-08-06T07:37:14;26.00;33.90
56322;DHT22;42227;6.376;-10.782;2023-08-06T07:39:42;25.80;36.20
56322;DHT22;42227;6.376;-10.782;2023-08-06T07:42:11;25.60;36.70
56322;DHT22;42227;6.376;-10.782;2023-08-06T07:44:39;25.30;67.70
56322;DHT22;42227;6.376;-10.782;2023-08-06T07:47:08;25.10;92.70
56322;DHT22;42227;6.376;-10.782;2023-08-06T07:49:36;25.00;92.20
56322;DHT22;42227;6.376;-10.782;2023-08-06T07:52:05;25.00;92.80
56322;DHT22;42227;6.376;-10.782;2023-08-06T07:54:33;25.00;92.60
56322;DHT22;42227;6.376;-10.782;2023-08-06T07:57:02;25.00;98.30
56322;DHT22;42227;6.376;-10.782;2023-08-06T07:59:33;25.00;99.90
56322;DHT22;42227;6.376;-10.782;2023-08-06T08:02:17;25.00;99.90
56322;DHT22;42227;6.376;-10.782;2023-08-06T08:04:45;25.00;99.90
56322;DHT22;42227;6.376;-10.782;2023-08-06T08:07:14;25.20;99.90
56322;DHT22;42227;6.376;-10.782;2023-08-06T08:09:42;25.20;99.90
56322;DHT22;42227;6.376;-10.782;2023-08-06T08:12:11;25.30;99.90
56322;DHT22;42227;6.376;-10.782;2023-08-06T08:14:39;25.30;99.90
56322;DHT22;42227;6.376;-10.782;2023-08-06T08:17:07;25.40;99.90
56322;DHT22;42227;6.376;-10.782;2023-08-06T08:19:36;25.70;99.90
56322;DHT22;42227;6.376;-10.782;2023-08-06T08:22:04;25.90;99.90
56322;DHT22;42227;6.376;-10.782;2023-08-06T08:24:33;26.30;99.90
56322;DHT22;42227;6.376;-10.782;2023-08-06T08:27:01;26.60;44.50
56322;DHT22;42227;6.376;-10.782;2023-08-06T08:29:29;26.80;1.00
56322;DHT22;42227;6.376;-10.782;2023-08-06T08:31:58;26.90;1.00
56322;DHT22;42227;6.376;-10.782;2023-08-06T08:34:27;27.10;1.00
56322;DHT22;42227;6.376;-10.782;2023-08-06T08:36:55;27.00;1.00
56322;DHT22;42227;6.376;-10.782;2023-08-06T08:39:24;26.80;1.00
56322;DHT22;42227;6.376;-10.782;2023-08-06T08:41:52;26.70;1.00
56322;DHT22;42227;6.376;-10.782;2023-08-06T08:44:21;26.60;1.00
56322;DHT22;42227;6.376;-10.782;2023-08-06T08:46:50;26.70;1.00
56322;DHT22;42227;6.376;-10.782;2023-08-06T08:49:20;26.70;1.00
56322;DHT22;42227;6.376;-10.782;2023-08-06T08:51:50;26.80;1.00
56322;DHT22;42227;6.376;-10.782;2023-08-06T08:54:23;26.80;1.00
56322;DHT22;42227;6.376;-10.782;2023-08-06T08:56:52;26.70;1.00
56322;DHT22;42227;6.376;-10.782;2023-08-06T08:59:21;26.60;1.00
56322;DHT22;42227;6.376;-10.782;2023-08-06T09:01:49;26.60;1.00
56322;DHT22;42227;6.376;-10.782;2023-08-06T09:04:19;26.40;1.00
56322;DHT22;42227;6.376;-10.782;2023-08-06T09:06:51;26.30;1.00
56322;DHT22;42227;6.376;-10.782;2023-08-06T09:09:22;26.20;1.00
56322;DHT22;42227;6.376;-10.782;2023-08-06T09:11:52;26.10;1.00
56322;DHT22;42227;6.376;-10.782;2023-08-06T09:14:24;26.20;1.00
56322;DHT22;42227;6.376;-10.782;2023-08-06T09:16:52;26.60;1.00
56322;DHT22;42227;6.376;-10.782;2023-08-06T09:19:21;26.60;1.00
56322;DHT22;42227;6.376;-10.782;2023-08-06T09:21:51;26.60;1.00
56322;DHT22;42227;6.376;-10.782;2023-08-06T09:24:20;26.50;1.00
56322;DHT22;42227;6.376;-10.782;2023-08-06T09:26:49;26.60;1.00
56322;DHT22;42227;6.376;-10.782;2023-08-06T09:29:17;26.50;1.00
56322;DHT22;42227;6.376;-10.782;2023-08-06T09:31:50;26.40;1.00
56322;DHT22;42227;6.376;-10.782;2023-08-06T09:34:22;26.40;1.00
56322;DHT22;42227;6.376;-10.782;2023-08-06T09:36:51;26.40;1.00
56322;DHT22;42227;6.376;-10.782;2023-08-06T09:39:30;26.40;1.00
56322;DHT22;42227;6.376;-10.782;2023-08-06T09:42:00;26.40;1.00
56322;DHT22;42227;6.376;-10.782;2023-08-06T09:44:31;26.50;1.00
56322;DHT22;42227;6.376;-10.782;2023-08-06T09:47:02;26.60;1.00
56322;DHT22;42227;6.376;-10.782;2023-08-06T09:52:03;26.60;1.00
56322;DHT22;42227;6.376;-10.782;2023-08-06T09:54:35;26.70;1.00
56322;DHT22;42227;6.376;-10.782;2023-08-06T09:57:06;26.70;1.00
56322;DHT22;42227;6.376;-10.782;2023-08-06T09:59:34;26.70;1.00
56322;DHT22;42227;6.376;-10.782;2023-08-06T10:02:11;26.90;1.00
56322;DHT22;42227;6.376;-10.782;2023-08-06T10:04:41;27.00;1.00
56322;DHT22;42227;6.376;-10.782;2023-08-06T10:07:12;27.10;1.00
56322;DHT22;42227;6.376;-10.782;2023-08-06T10:09:40;27.60;1.00
56322;DHT22;42227;6.376;-10.782;2023-08-06T10:12:09;28.00;1.00
56322;DHT22;42227;6.376;-10.782;2023-08-06T10:14:38;28.30;1.00
56322;DHT22;42227;6.376;-10.782;2023-08-06T10:17:07;28.50;99.90
56322;DHT22;42227;6.376;-10.782;2023-08-06T10:19:36;28.50;99.90
56322;DHT22;42227;6.376;-10.782;2023-08-06T10:22:12;28.50;99.90
56322;DHT22;42227;6.376;-10.782;2023-08-06T10:24:57;28.60;99.90
56322;DHT22;42227;6.376;-10.782;2023-08-06T10:27:57;28.40;99.90
56322;DHT22;42227;6.376;-10.782;2023-08-06T10:35:44;28.40;99.90
56322;DHT22;42227;6.376;-10.782;2023-08-06T10:38:24;28.40;99.90
56322;DHT22;42227;6.376;-10.782;2023-08-06T10:43:26;28.70;99.90
56322;DHT22;42227;6.376;-10.782;2023-08-06T10:45:56;29.30;99.90
56322;DHT22;42227;6.376;-10.782;2023-08-06T10:51:10;29.80;99.90
56322;DHT22;42227;6.376;-10.782;2023-08-06T10:53:44;29.50;99.90
56322;DHT22;42227;6.376;-10.782;2023-08-06T10:56:14;29.30;99.90
56322;DHT22;42227;6.376;-10.782;2023-08-06T10:58:47;29.20;99.90
56322;DHT22;42227;6.376;-10.782;2023-08-06T11:01:16;29.20;99.90
56322;DHT22;42227;6.376;-10.782;2023-08-06T11:03:46;29.40;99.90
56322;DHT22;42227;6.376;-10.782;2023-08-06T11:06:22;29.70;99.90
56322;DHT22;42227;6.376;-10.782;2023-08-06T11:08:52;29.90;52.60
56322;DHT22;42227;6.376;-10.782;2023-08-06T11:11:23;30.10;49.60
56322;DHT22;42227;6.376;-10.782;2023-08-06T11:13:52;30.20;1.00
56322;DHT22;42227;6.376;-10.782;2023-08-06T11:16:24;30.20;1.00
56322;DHT22;42227;6.376;-10.782;2023-08-06T11:18:53;30.20;1.00
56322;DHT22;42227;6.376;-10.782;2023-08-06T11:21:22;30.20;1.00
56322;DHT22;42227;6.376;-10.782;2023-08-06T11:23:51;30.10;1.00
56322;DHT22;42227;6.376;-10.782;2023-08-06T11:26:20;29.80;1.00
56322;DHT22;42227;6.376;-10.782;2023-08-06T11:28:50;29.70;1.00
56322;DHT22;42227;6.376;-10.782;2023-08-06T11:31:22;29.70;1.00
56322;DHT22;42227;6.376;-10.782;2023-08-06T11:33:55;29.50;1.00
56322;DHT22;42227;6.376;-10.782;2023-08-06T11:36:34;29.70;1.00
56322;DHT22;42227;6.376;-10.782;2023-08-06T11:39:13;29.80;1.00
56322;DHT22;42227;6.376;-10.782;2023-08-06T11:41:42;29.80;1.00
56322;DHT22;42227;6.376;-10.782;2023-08-06T11:44:11;29.50;1.00
56322;DHT22;42227;6.376;-10.782;2023-08-06T11:46:54;29.50;1.00
56322;DHT22;42227;6.376;-10.782;2023-08-06T11:49:40;29.60;1.00
56322;DHT22;42227;6.376;-10.782;2023-08-06T11:52:14;29.70;1.00
56322;DHT22;42227;6.376;-10.782;2023-08-06T11:54:43;29.80;1.00
56322;DHT22;42227;6.376;-10.782;2023-08-06T11:57:11;29.80;1.00
56322;DHT22;42227;6.376;-10.782;2023-08-06T11:59:42;29.90;1.00
56322;DHT22;42227;6.376;-10.782;2023-08-06T12:02:10;29.90;1.00
56322;DHT22;42227;6.376;-10.782;2023-08-06T12:05:21;29.70;1.00
56322;DHT22;42227;6.376;-10.782;2023-08-06T12:07:52;30.00;1.00
56322;DHT22;42227;6.376;-10.782;2023-08-06T12:10:23;30.00;1.00
56322;DHT22;42227;6.376;-10.782;2023-08-06T12:12:53;29.90;1.00
56322;DHT22;42227;6.376;-10.782;2023-08-06T12:15:22;30.20;1.00
56322;DHT22;42227;6.376;-10.782;2023-08-06T12:17:55;30.60;1.00
56322;DHT22;42227;6.376;-10.782;2023-08-06T12:20:24;30.90;1.00
56322;DHT22;42227;6.376;-10.782;2023-08-06T12:22:52;31.00;1.00
56322;DHT22;42227;6.376;-10.782;2023-08-06T12:25:21;30.70;1.00
56322;DHT22;42227;6.376;-10.782;2023-08-06T12:27:49;30.60;1.00
56322;DHT22;42227;6.376;-10.782;2023-08-06T12:30:18;30.70;1.00
56322;DHT22;42227;6.376;-10.782;2023-08-06T12:32:47;30.80;1.00
56322;DHT22;42227;6.376;-10.782;2023-08-06T12:35:15;30.90;1.00
56322;DHT22;42227;6.376;-10.782;2023-08-06T12:37:44;31.10;1.00
56322;DHT22;42227;6.376;-10.782;2023-08-06T12:40:13;31.20;99.90
56322;DHT22;42227;6.376;-10.782;2023-08-06T12:43:04;31.20;99.90
56322;DHT22;42227;6.376;-10.782;2023-08-06T12:45:33;31.20;99.90
56322;DHT22;42227;6.376;-10.782;2023-08-06T12:48:03;30.90;99.90
56322;DHT22;42227;6.376;-10.782;2023-08-06T12:50:31;30.50;99.90
56322;DHT22;42227;6.376;-10.782;2023-08-06T12:53:01;30.40;99.90
56322;DHT22;42227;6.376;-10.782;2023-08-06T12:55:29;30.70;99.90
56322;DHT22;42227;6.376;-10.782;2023-08-06T12:58:00;31.00;99.90
56322;DHT22;42227;6.376;-10.782;2023-08-06T13:00:29;31.00;99.90
56322;DHT22;42227;6.376;-10.782;2023-08-06T13:03:08;31.00;99.90
56322;DHT22;42227;6.376;-10.782;2023-08-06T13:05:37;30.90;99.90
56322;DHT22;42227;6.376;-10.782;2023-08-06T13:08:05;30.90;99.90
56322;DHT22;42227;6.376;-10.782;2023-08-06T13:10:34;30.70;1.00
56322;DHT22;42227;6.376;-10.782;2023-08-06T13:13:02;30.60;1.00
56322;DHT22;42227;6.376;-10.782;2023-08-06T13:15:31;30.50;1.00
56322;DHT22;42227;6.376;-10.782;2023-08-06T13:17:59;30.60;1.00
56322;DHT22;42227;6.376;-10.782;2023-08-06T13:20:30;30.70;1.00
56322;DHT22;42227;6.376;-10.782;2023-08-06T13:22:59;30.60;1.00
56322;DHT22;42227;6.376;-10.782;2023-08-06T13:25:28;30.70;1.00
56322;DHT22;42227;6.376;-10.782;2023-08-06T13:27:56;30.90;1.00
56322;DHT22;42227;6.376;-10.782;2023-08-06T13:30:25;31.00;1.00
56322;DHT22;42227;6.376;-10.782;2023-08-06T13:32:53;30.90;1.00
56322;DHT22;42227;6.376;-10.782;2023-08-06T13:35:23;31.00;1.00
56322;DHT22;42227;6.376;-10.782;2023-08-06T13:37:51;30.70;1.00
56322;DHT22;42227;6.376;-10.782;2023-08-06T13:40:20;30.80;1.00
56322;DHT22;42227;6.376;-10.782;2023-08-06T13:42:48;30.80;1.00
56322;DHT22;42227;6.376;-10.782;2023-08-06T13:45:17;30.70;99.90
56322;DHT22;42227;6.376;-10.782;2023-08-06T13:47:45;30.70;99.90
56322;DHT22;42227;6.376;-10.782;2023-08-06T13:50:14;30.70;99.90
56322;DHT22;42227;6.376;-10.782;2023-08-06T13:52:43;30.90;99.90
56322;DHT22;42227;6.376;-10.782;2023-08-06T13:55:11;30.90;99.90
56322;DHT22;42227;6.376;-10.782;2023-08-06T13:57:40;30.90;99.90
56322;DHT22;42227;6.376;-10.782;2023-08-06T14:00:09;30.90;99.90
56322;DHT22;42227;6.376;-10.782;2023-08-06T14:02:42;31.20;99.90
56322;DHT22;42227;6.376;-10.782;2023-08-06T14:05:11;31.40;99.90
56322;DHT22;42227;6.376;-10.782;2023-08-06T14:07:39;31.30;99.90
56322;DHT22;42227;6.376;-10.782;2023-08-06T14:10:08;31.30;99.90
56322;DHT22;42227;6.376;-10.782;2023-08-06T14:12:37;31.00;99.90
56322;DHT22;42227;6.376;-10.782;2023-08-06T14:15:06;31.10;99.90
56322;DHT22;42227;6.376;-10.782;2023-08-06T14:17:34;31.10;99.90
56322;DHT22;42227;6.376;-10.782;2023-08-06T14:20:04;31.00;99.90
56322;DHT22;42227;6.376;-10.782;2023-08-06T14:22:32;30.80;99.90
56322;DHT22;42227;6.376;-10.782;2023-08-06T14:25:01;31.00;99.90
56322;DHT22;42227;6.376;-10.782;2023-08-06T14:27:30;31.00;99.90
56322;DHT22;42227;6.376;-10.782;2023-08-06T14:29:58;31.20;99.90
56322;DHT22;42227;6.376;-10.782;2023-08-06T14:32:27;31.40;99.90
56322;DHT22;42227;6.376;-10.782;2023-08-06T14:34:56;31.10;99.90
56322;DHT22;42227;6.376;-10.782;2023-08-06T14:37:25;31.20;99.90
56322;DHT22;42227;6.376;-10.782;2023-08-06T14:39:53;31.30;99.90
56322;DHT22;42227;6.376;-10.782;2023-08-06T14:42:22;31.40;99.90
56322;DHT22;42227;6.376;-10.782;2023-08-06T14:44:50;31.20;99.90
56322;DHT22;42227;6.376;-10.782;2023-08-06T14:47:19;30.80;99.90
56322;DHT22;42227;6.376;-10.782;2023-08-06T14:49:47;30.70;99.90
56322;DHT22;42227;6.376;-10.782;2023-08-06T14:52:16;30.50;99.90
56322;DHT22;42227;6.376;-10.782;2023-08-06T14:54:45;30.50;99.90
56322;DHT22;42227;6.376;-10.782;2023-08-06T14:57:14;30.50;99.90
56322;DHT22;42227;6.376;-10.782;2023-08-06T14:59:42;30.40;99.90
56322;DHT22;42227;6.376;-10.782;2023-08-06T15:02:11;30.30;99.90
56322;DHT22;42227;6.376;-10.782;2023-08-06T15:04:39;30.30;99.90
56322;DHT22;42227;6.376;-10.782;2023-08-06T15:07:08;30.10;99.90
56322;DHT22;42227;6.376;-10.782;2023-08-06T15:09:36;30.00;99.90
56322;DHT22;42227;6.376;-10.782;2023-08-06T15:12:25;30.00;99.90
56322;DHT22;42227;6.376;-10.782;2023-08-06T15:14:53;29.90;99.90
56322;DHT22;42227;6.376;-10.782;2023-08-06T15:17:22;30.00;99.90
56322;DHT22;42227;6.376;-10.782;2023-08-06T15:19:51;29.90;99.90
56322;DHT22;42227;6.376;-10.782;2023-08-06T15:22:19;30.40;99.90
56322;DHT22;42227;6.376;-10.782;2023-08-06T15:24:48;30.20;99.90
56322;DHT22;42227;6.376;-10.782;2023-08-06T15:27:16;30.20;99.90
56322;DHT22;42227;6.376;-10.782;2023-08-06T15:29:45;30.10;99.90
56322;DHT22;42227;6.376;-10.782;2023-08-06T15:32:13;29.90;99.90
56322;DHT22;42227;6.376;-10.782;2023-08-06T15:34:42;29.80;99.90
56322;DHT22;42227;6.376;-10.782;2023-08-06T15:37:10;29.80;99.90
56322;DHT22;42227;6.376;-10.782;2023-08-06T15:39:39;29.80;99.90
56322;DHT22;42227;6.376;-10.782;2023-08-06T15:42:07;29.70;99.90
56322;DHT22;42227;6.376;-10.782;2023-08-06T15:44:35;29.60;99.90
56322;DHT22;42227;6.376;-10.782;2023-08-06T15:47:04;29.50;99.90
56322;DHT22;42227;6.376;-10.782;2023-08-06T15:49:33;29.40;99.90
56322;DHT22;42227;6.376;-10.782;2023-08-06T15:52:03;29.10;99.90
56322;DHT22;42227;6.376;-10.782;2023-08-06T15:54:31;28.80;99.90
56322;DHT22;42227;6.376;-10.782;2023-08-06T15:57:00;28.70;99.90
56322;DHT22;42227;6.376;-10.782;2023-08-06T15:59:30;28.50;99.90
56322;DHT22;42227;6.376;-10.782;2023-08-06T16:01:59;28.40;99.90